createdAt,value
2022-10-30T00:02:52.276Z,73.20
2022-10-30T00:05:55.413Z,73.13
2022-10-30T00:08:58.276Z,73.00
2022-10-30T00:12:01.130Z,73.02
2022-10-30T00:15:04.586Z,73.00
2022-10-30T00:18:07.516Z,73.03
2022-10-30T00:21:13.100Z,73.04
2022-10-30T00:24:16.825Z,73.05
2022-10-30T00:27:19.675Z,73.12
2022-10-30T00:30:23.342Z,73.00
2022-10-30T00:33:26.422Z,72.99
2022-10-30T00:36:29.270Z,72.85
2022-10-30T00:39:32.179Z,72.81
2022-10-30T00:42:34.948Z,72.98
2022-10-30T00:45:40.205Z,73.08
2022-10-30T00:48:46.133Z,73.12
2022-10-30T00:51:53.608Z,73.14
2022-10-30T00:54:58.517Z,73.10
2022-10-30T00:58:07.768Z,73.07
2022-10-30T01:01:19.702Z,73.13
2022-10-30T01:04:28.938Z,73.17
2022-10-30T01:07:33.230Z,73.16
2022-10-30T01:10:36.115Z,73.19
2022-10-30T01:13:42.004Z,73.24
2022-10-30T01:16:54.984Z,73.23
2022-10-30T01:20:24.219Z,73.31
2022-10-30T01:23:46.435Z,73.34
2022-10-30T01:27:07.242Z,73.40
2022-10-30T01:30:29.034Z,73.31
2022-10-30T01:33:50.646Z,73.27
2022-10-30T01:37:50.801Z,73.13
2022-10-30T01:40:53.654Z,73.12
2022-10-30T01:44:01.736Z,73.09
2022-10-30T01:47:20.729Z,73.06
2022-10-30T01:50:40.964Z,73.12
2022-10-30T01:53:56.617Z,73.16
2022-10-30T01:57:35.446Z,73.21
2022-10-30T02:00:42.270Z,73.23
2022-10-30T02:03:46.523Z,73.25
2022-10-30T02:06:49.895Z,73.22
2022-10-30T02:09:54.791Z,73.17
2022-10-30T02:12:57.827Z,73.28
2022-10-30T02:16:01.097Z,73.33
2022-10-30T02:19:04.050Z,73.25
2022-10-30T02:22:07.174Z,73.24
2022-10-30T02:25:10.255Z,73.33
2022-10-30T02:28:13.179Z,73.39
2022-10-30T02:31:16.077Z,73.33
2022-10-30T02:34:18.956Z,73.33
2022-10-30T02:37:21.981Z,73.47
2022-10-30T02:40:24.817Z,73.48
2022-10-30T02:43:27.751Z,73.38
2022-10-30T02:46:30.729Z,73.47
2022-10-30T02:49:33.692Z,73.55
2022-10-30T02:52:36.727Z,73.54
2022-10-30T02:55:39.603Z,73.58
2022-10-30T02:58:43.282Z,73.73
2022-10-30T03:01:46.346Z,73.57
2022-10-30T03:04:49.294Z,73.57
2022-10-30T03:07:52.234Z,73.41
2022-10-30T03:11:09.687Z,73.49
2022-10-30T03:14:12.569Z,73.55
2022-10-30T03:17:15.369Z,73.50
2022-10-30T03:20:18.992Z,73.57
2022-10-30T03:23:21.834Z,73.56
2022-10-30T03:26:24.965Z,73.67
2022-10-30T03:29:31.130Z,73.68
2022-10-30T03:32:34.020Z,73.68
2022-10-30T03:35:37.079Z,73.72
2022-10-30T03:38:40.334Z,73.65
2022-10-30T03:41:44.802Z,73.72
2022-10-30T03:44:48.343Z,73.70
2022-10-30T03:47:51.215Z,73.84
2022-10-30T03:50:54.971Z,73.91
2022-10-30T03:53:58.069Z,73.79
2022-10-30T03:57:01.841Z,73.74
2022-10-30T04:00:09.160Z,73.83
2022-10-30T04:03:19.520Z,73.86
2022-10-30T04:06:22.484Z,73.92
2022-10-30T04:09:25.485Z,73.94
2022-10-30T04:12:29.381Z,73.83
2022-10-30T04:15:33.959Z,73.93
2022-10-30T04:18:36.973Z,74.09
2022-10-30T04:21:39.890Z,74.09
2022-10-30T04:24:44.816Z,74.12
2022-10-30T04:27:49.368Z,74.13
2022-10-30T04:30:53.211Z,74.11
2022-10-30T04:33:56.075Z,74.04
2022-10-30T04:36:58.994Z,74.16
2022-10-30T04:40:01.873Z,74.23
2022-10-30T04:43:10.314Z,74.10
2022-10-30T04:46:13.960Z,74.07
2022-10-30T04:49:16.892Z,74.18
2022-10-30T04:52:19.843Z,74.28
2022-10-30T04:55:22.802Z,74.24
2022-10-30T04:58:25.972Z,74.22
2022-10-30T05:01:36.687Z,74.17
2022-10-30T05:04:39.812Z,74.27
2022-10-30T05:07:43.357Z,74.31
2022-10-30T05:10:46.237Z,74.30
2022-10-30T05:13:49.517Z,74.25
2022-10-30T05:16:52.771Z,74.31
2022-10-30T05:19:56.771Z,74.30
2022-10-30T05:23:00.225Z,74.23
2022-10-30T05:26:03.352Z,74.37
2022-10-30T05:29:06.435Z,74.37
2022-10-30T05:32:09.589Z,74.34
2022-10-30T05:35:24.577Z,74.41
2022-10-30T05:38:28.271Z,74.31
2022-10-30T05:41:31.338Z,74.44
2022-10-30T05:44:55.056Z,74.35
2022-10-30T05:47:59.449Z,74.45
2022-10-30T05:51:06.672Z,74.53
2022-10-30T05:54:09.945Z,74.47
2022-10-30T05:57:14.787Z,74.38
2022-10-30T06:00:18.077Z,74.53
2022-10-30T06:03:20.995Z,74.50
2022-10-30T06:06:24.011Z,74.48
2022-10-30T06:09:27.181Z,74.64
2022-10-30T06:12:56.913Z,74.57
2022-10-30T06:16:24.071Z,74.51
2022-10-30T06:19:48.445Z,74.52
2022-10-30T06:23:09.999Z,74.56
2022-10-30T06:26:22.214Z,74.65
2022-10-30T06:29:30.469Z,74.61
2022-10-30T06:32:33.294Z,74.62
2022-10-30T06:35:36.267Z,74.70
2022-10-30T06:38:39.308Z,74.70
2022-10-30T06:41:43.839Z,74.72
2022-10-30T06:45:16.542Z,74.71
2022-10-30T06:48:19.996Z,74.77
2022-10-30T06:51:27.188Z,74.84
2022-10-30T06:54:30.432Z,74.90
2022-10-30T06:57:39.318Z,74.85
2022-10-30T07:01:02.194Z,74.91
2022-10-30T07:04:17.912Z,75.00
2022-10-30T07:07:20.900Z,74.91
2022-10-30T07:10:23.949Z,74.99
2022-10-30T07:13:43.934Z,75.01
2022-10-30T07:17:09.973Z,74.96
2022-10-30T07:20:13.487Z,75.02
2022-10-30T07:23:17.070Z,75.01
2022-10-30T07:26:19.961Z,75.10
2022-10-30T07:29:23.199Z,75.07
2022-10-30T07:32:46.287Z,75.01
2022-10-30T07:35:56.579Z,75.01
2022-10-30T07:39:25.606Z,75.03
2022-10-30T07:42:37.738Z,74.98
2022-10-30T07:46:09.762Z,74.93
2022-10-30T07:49:32.549Z,74.97
2022-10-30T07:52:41.431Z,75.08
2022-10-30T07:55:44.970Z,75.20
2022-10-30T07:58:50.672Z,75.28
2022-10-30T08:02:12.601Z,75.78
2022-10-30T08:05:34.955Z,75.87
2022-10-30T08:08:46.168Z,75.63
2022-10-30T08:12:18.220Z,75.54
2022-10-30T08:15:21.277Z,75.98
2022-10-30T08:18:25.620Z,75.88
2022-10-30T08:21:28.790Z,75.65
2022-10-30T08:24:36.161Z,75.57
2022-10-30T08:27:39.195Z,75.58
2022-10-30T08:30:42.292Z,75.57
2022-10-30T08:33:47.398Z,75.52
2022-10-30T08:37:08.172Z,75.60
2022-10-30T08:40:11.792Z,75.61
2022-10-30T08:43:50.091Z,75.69
2022-10-30T08:46:53.656Z,75.58
2022-10-30T08:49:56.652Z,75.60
2022-10-30T08:53:04.388Z,75.70
2022-10-30T08:56:07.691Z,75.64
2022-10-30T08:59:21.533Z,75.61
2022-10-30T09:02:25.488Z,75.57
2022-10-30T09:05:48.859Z,75.69
2022-10-30T09:09:06.979Z,75.75
2022-10-30T09:12:18.533Z,75.78
2022-10-30T09:15:22.921Z,75.71
2022-10-30T09:18:30.591Z,75.56
2022-10-30T09:21:33.676Z,75.46
2022-10-30T09:24:37.467Z,75.36
2022-10-30T09:27:58.857Z,75.23
2022-10-30T09:31:04.089Z,75.36
2022-10-30T09:34:07.883Z,75.41
2022-10-30T09:37:19.607Z,75.39
2022-10-30T09:40:31.756Z,75.33
2022-10-30T09:44:02.506Z,75.17
2022-10-30T09:47:27.017Z,75.06
2022-10-30T09:50:39.886Z,75.06
2022-10-30T09:53:58.257Z,74.97
2022-10-30T09:57:20.185Z,74.88
2022-10-30T10:00:30.964Z,74.69
2022-10-30T10:04:02.573Z,74.78
2022-10-30T10:07:36.897Z,74.72
2022-10-30T10:10:53.987Z,74.73
2022-10-30T10:14:10.786Z,74.75
2022-10-30T10:17:30.583Z,74.66
2022-10-30T10:20:46.998Z,74.65
2022-10-30T10:23:52.473Z,74.63
2022-10-30T10:27:16.563Z,74.60
2022-10-30T10:30:21.417Z,74.54
2022-10-30T10:33:30.837Z,74.30
2022-10-30T10:37:21.809Z,74.19
2022-10-30T10:40:34.741Z,73.95
2022-10-30T10:44:00.256Z,73.84
2022-10-30T10:47:37.691Z,73.69
2022-10-30T10:50:48.841Z,73.32
2022-10-30T10:53:59.929Z,73.07
2022-10-30T10:57:06.519Z,72.92
2022-10-30T11:00:18.429Z,72.78
2022-10-30T11:03:28.041Z,72.83
2022-10-30T11:06:38.461Z,72.73
2022-10-30T11:09:42.585Z,72.67
2022-10-30T11:12:45.840Z,72.48
2022-10-30T11:16:21.971Z,72.43
2022-10-30T11:19:25.553Z,72.41
2022-10-30T11:22:40.113Z,72.51
2022-10-30T11:25:42.993Z,72.27
2022-10-30T11:28:52.784Z,72.15
2022-10-30T11:32:04.058Z,72.04
2022-10-30T11:35:07.460Z,71.91
2022-10-30T11:38:19.388Z,71.91
2022-10-30T11:41:22.629Z,71.95
2022-10-30T11:44:30.766Z,72.09
2022-10-30T11:47:38.487Z,72.06
2022-10-30T11:50:47.974Z,71.91
2022-10-30T11:53:50.986Z,71.84
2022-10-30T11:56:54.881Z,71.90
2022-10-30T12:00:04.673Z,71.85
2022-10-30T12:03:30.387Z,71.72
2022-10-30T12:06:33.248Z,71.52
2022-10-30T12:09:44.872Z,71.45
2022-10-30T12:12:50.787Z,71.42
2022-10-30T12:16:07.897Z,71.39
2022-10-30T12:19:15.472Z,71.32
2022-10-30T12:22:28.101Z,71.25
2022-10-30T12:25:32.260Z,71.16
2022-10-30T12:28:36.091Z,71.09
2022-10-30T12:31:47.901Z,70.96
2022-10-30T12:35:00.309Z,70.87
2022-10-30T12:38:09.825Z,70.77
2022-10-30T12:41:23.786Z,70.54
2022-10-30T12:44:32.373Z,70.45
2022-10-30T12:47:49.699Z,70.32
2022-10-30T12:51:06.554Z,70.24
2022-10-30T12:54:29.882Z,70.15
2022-10-30T12:58:16.112Z,69.92
2022-10-30T13:01:35.779Z,69.90
2022-10-30T13:04:46.158Z,69.90
2022-10-30T13:07:58.512Z,69.85
2022-10-30T13:11:25.600Z,69.72
2022-10-30T13:14:38.730Z,69.57
2022-10-30T13:17:41.638Z,69.66
2022-10-30T13:21:01.808Z,69.58
2022-10-30T13:24:26.450Z,69.43
2022-10-30T13:27:41.928Z,69.28
2022-10-30T13:31:01.648Z,69.24
2022-10-30T13:34:41.850Z,69.24
2022-10-30T13:38:02.442Z,69.29
2022-10-30T13:41:52.994Z,69.21
2022-10-30T13:45:22.043Z,69.32
2022-10-30T13:48:52.743Z,69.11
2022-10-30T13:52:06.130Z,69.08
2022-10-30T13:55:24.537Z,69.03
2022-10-30T13:58:42.354Z,68.94
2022-10-30T14:02:00.600Z,68.87
2022-10-30T14:05:18.630Z,68.82
2022-10-30T14:08:27.636Z,68.82
2022-10-30T14:11:30.606Z,68.81
2022-10-30T14:14:44.460Z,68.76
2022-10-30T14:18:12.001Z,68.65
2022-10-30T14:21:39.209Z,68.57
2022-10-30T14:24:45.126Z,68.49
2022-10-30T14:27:56.596Z,68.46
2022-10-30T14:31:05.461Z,68.33
2022-10-30T14:34:41.676Z,68.29
2022-10-30T14:37:44.472Z,68.24
2022-10-30T14:40:53.294Z,68.37
2022-10-30T14:44:06.419Z,68.37
2022-10-30T14:47:21.381Z,68.37
2022-10-30T14:50:27.051Z,68.32
2022-10-30T14:53:42.402Z,68.33
2022-10-30T14:56:51.238Z,68.36
2022-10-30T15:00:34.977Z,68.33
2022-10-30T15:04:04.549Z,68.40
2022-10-30T15:07:26.677Z,68.48
2022-10-30T15:10:35.283Z,68.57
2022-10-30T15:13:38.177Z,68.56
2022-10-30T15:16:41.809Z,68.70
2022-10-30T15:19:44.959Z,69.03
2022-10-30T15:22:52.924Z,68.99
2022-10-30T15:26:00.773Z,68.97
2022-10-30T15:29:07.113Z,68.96
2022-10-30T15:32:21.462Z,69.05
2022-10-30T15:35:26.983Z,69.04
2022-10-30T15:38:30.030Z,69.17
2022-10-30T15:41:38.714Z,69.20
2022-10-30T15:44:44.360Z,69.14
2022-10-30T15:48:20.662Z,69.22
2022-10-30T15:51:24.807Z,69.31
2022-10-30T15:54:29.302Z,69.38
2022-10-30T16:01:01.551Z,69.59
2022-10-30T16:04:13.616Z,69.65
2022-10-30T16:07:22.947Z,69.55
2022-10-30T16:10:35.823Z,69.65
2022-10-30T16:13:38.846Z,69.74
2022-10-30T16:16:44.267Z,69.77
2022-10-30T16:19:51.736Z,69.82
2022-10-30T16:22:54.677Z,69.88
2022-10-30T16:25:59.418Z,69.91
2022-10-30T16:29:14.533Z,69.97
2022-10-30T16:32:24.551Z,70.03
2022-10-30T16:35:29.213Z,70.09
2022-10-30T16:38:39.868Z,70.27
2022-10-30T16:41:44.615Z,70.43
2022-10-30T16:44:48.080Z,70.47
2022-10-30T16:48:00.999Z,70.69
2022-10-30T16:51:15.992Z,70.69
2022-10-30T16:54:25.264Z,70.73
2022-10-30T16:57:35.527Z,70.80
2022-10-30T17:00:41.636Z,70.85
2022-10-30T17:03:45.449Z,70.88
2022-10-30T17:06:50.358Z,70.91
2022-10-30T17:09:56.877Z,70.81
2022-10-30T17:13:33.020Z,70.91
2022-10-30T17:16:39.807Z,70.87
2022-10-30T17:19:47.557Z,70.85
2022-10-30T17:23:05.209Z,70.83
2022-10-30T17:26:09.749Z,70.84
2022-10-30T17:29:37.606Z,70.91
2022-10-30T17:32:45.246Z,70.80
2022-10-30T17:35:48.351Z,70.89
2022-10-30T17:38:51.263Z,70.89
2022-10-30T17:41:57.325Z,70.82
2022-10-30T17:45:00.198Z,70.95
2022-10-30T17:48:03.324Z,70.99
2022-10-30T17:51:06.262Z,71.02
2022-10-30T17:54:13.520Z,71.03
2022-10-30T17:57:16.851Z,70.95
2022-10-30T18:00:19.879Z,70.98
2022-10-30T18:03:22.867Z,70.86
2022-10-30T18:06:27.491Z,70.91
2022-10-30T18:09:30.393Z,70.89
2022-10-30T18:12:33.256Z,70.91
2022-10-30T18:15:39.352Z,70.93
2022-10-30T18:18:44.443Z,70.93
2022-10-30T18:21:48.547Z,70.98
2022-10-30T18:24:51.432Z,70.76
2022-10-30T18:27:54.453Z,70.75
2022-10-30T18:30:58.609Z,70.79
2022-10-30T18:34:02.167Z,70.73
2022-10-30T18:37:05.200Z,70.73
2022-10-30T18:40:08.783Z,70.65
2022-10-30T18:43:12.136Z,70.48
2022-10-30T18:46:16.730Z,70.50
2022-10-30T18:49:24.408Z,70.57
2022-10-30T18:52:27.306Z,70.92
2022-10-30T18:55:36.613Z,70.88
2022-10-30T18:58:39.695Z,71.37
2022-10-30T19:01:42.793Z,71.03
2022-10-30T19:04:45.857Z,70.70
2022-10-30T19:07:48.864Z,70.50
2022-10-30T19:10:57.091Z,70.33
2022-10-30T19:14:00.683Z,70.43
2022-10-30T19:17:03.554Z,70.40
2022-10-30T19:20:06.749Z,70.38
2022-10-30T19:23:15.100Z,70.30
2022-10-30T19:26:18.022Z,70.40
2022-10-30T19:29:20.915Z,70.24
2022-10-30T19:32:23.763Z,70.21
2022-10-30T19:35:28.250Z,70.12
2022-10-30T19:38:32.643Z,70.17
2022-10-30T19:41:36.258Z,70.18
2022-10-30T19:44:39.119Z,70.07
2022-10-30T19:47:42.795Z,70.08
2022-10-30T19:50:46.767Z,70.01
2022-10-30T19:53:52.564Z,69.92
2022-10-30T19:56:55.411Z,70.01
2022-10-30T20:00:12.967Z,69.97
2022-10-30T20:03:18.202Z,69.91
2022-10-30T20:06:21.477Z,69.85
2022-10-30T20:09:24.390Z,70.03
2022-10-30T20:12:27.242Z,69.95
2022-10-30T20:15:30.221Z,69.97
2022-10-30T20:18:35.736Z,70.08
2022-10-30T20:21:38.838Z,69.90
2022-10-30T20:24:42.283Z,69.84
2022-10-30T20:27:46.056Z,69.91
2022-10-30T20:30:50.897Z,69.87
2022-10-30T20:33:53.870Z,69.92
2022-10-30T20:36:56.762Z,70.02
2022-10-30T20:39:59.656Z,69.97
2022-10-30T20:43:03.369Z,70.00
2022-10-30T20:46:09.361Z,69.95
2022-10-30T20:49:17.701Z,69.99
2022-10-30T20:52:21.676Z,69.95
2022-10-30T20:55:24.620Z,70.00
2022-10-30T20:58:27.996Z,69.95
2022-10-30T21:01:31.035Z,69.89
2022-10-30T21:04:33.971Z,69.92
2022-10-30T21:07:37.246Z,70.01
2022-10-30T21:10:42.333Z,70.08
2022-10-30T21:13:45.293Z,70.18
2022-10-30T21:16:48.166Z,70.26
2022-10-30T21:19:51.013Z,70.19
2022-10-30T21:22:53.846Z,70.16
2022-10-30T21:26:01.172Z,70.27
2022-10-30T21:29:05.315Z,70.17
2022-10-30T21:32:08.236Z,70.27
2022-10-30T21:35:11.068Z,70.27
2022-10-30T21:38:13.940Z,70.25
2022-10-30T21:41:19.715Z,70.27
2022-10-30T21:44:22.638Z,70.28
2022-10-30T21:47:25.633Z,70.15
2022-10-30T21:50:28.436Z,70.20
2022-10-30T21:53:31.289Z,70.37
2022-10-30T21:56:36.056Z,70.30
2022-10-30T21:59:39.126Z,70.21
2022-10-30T22:02:42.021Z,70.28
2022-10-30T22:05:44.834Z,70.18
2022-10-30T22:08:49.656Z,70.15
2022-10-30T22:11:52.544Z,70.21
2022-10-30T22:14:55.369Z,70.21
2022-10-30T22:17:58.613Z,70.08
2022-10-30T22:21:07.988Z,70.15
2022-10-30T22:24:13.023Z,70.10
2022-10-30T22:27:16.022Z,70.14
2022-10-30T22:30:18.871Z,70.14
2022-10-30T22:33:21.746Z,70.08
2022-10-30T22:36:26.882Z,70.09
2022-10-30T22:39:29.764Z,70.09
2022-10-30T22:42:35.354Z,70.09
2022-10-30T22:45:38.266Z,70.16
2022-10-30T22:48:41.833Z,70.16
2022-10-30T22:51:44.740Z,70.14
2022-10-30T22:54:47.735Z,70.08
2022-10-30T22:57:54.454Z,70.05
2022-10-30T23:01:17.694Z,70.04
2022-10-30T23:04:20.587Z,70.04
2022-10-30T23:07:23.481Z,69.95
2022-10-30T23:10:26.341Z,69.91
2022-10-30T23:13:29.562Z,69.97
2022-10-30T23:16:32.479Z,69.93
2022-10-30T23:19:35.384Z,69.75
2022-10-30T23:22:38.253Z,69.70
2022-10-30T23:25:41.267Z,69.64
2022-10-30T23:28:45.031Z,69.55
2022-10-30T23:31:47.841Z,69.47
2022-10-30T23:34:50.684Z,69.48
2022-10-30T23:37:53.650Z,69.37
2022-10-30T23:40:56.506Z,69.36
2022-10-30T23:44:01.663Z,69.11
2022-10-30T23:47:04.541Z,69.08
2022-10-30T23:50:07.614Z,68.98
2022-10-30T23:53:10.498Z,69.10
2022-10-30T23:56:14.087Z,69.24
2022-10-30T23:59:16.945Z,69.35
